Cfl Performer — PHLY — position and weather

sailwx.info

Track history (hours):
 
Tides and Currents Weather Stations Pressure Air Temp Water Temp Dewpoint Dewpoint Depression Visibility Wind Speed Wind Dir Waves Ship Positions

Cfl Performer

Last reported at 2016-May-29 16:33 UTC. Time now 2016-May-29 17:17 UTC.
Position N 49°28' W 000°06'.

Length 117 m; draft 6.2 m.

Type: Cargo ship. MMSI: 244989000.

Date/timePositionNaut miles runAvg speedWind from/ knotsBaromVisibWave heightAir tempDewpointWater temp
2016-May-29 16:33N 49°28' W 000°06'0 0.1
2016-May-29 15:33N 49°28' W 000°06'0 0.0
2016-May-29 14:33N 49°28' W 000°06'0 0.0
2016-May-29 13:33N 49°28' W 000°06'0 0.2
2016-May-29 12:33N 49°28' W 000°06'0 0.0
2016-May-29 11:33N 49°28' W 000°06'0 0.0
2016-May-29 10:33N 49°28' W 000°06'5 5.5
2016-May-29 09:33N 49°34' W 000°07'7 7.0
2016-May-29 08:33N 49°38' W 000°15'9 9.1
2016-May-29 07:33N 49°45' W 000°24'1211.6
2016-May-29 06:33N 49°56' W 000°18'1111.2
2016-May-29 05:33N 50°07' W 000°13'1110.6
2016-May-29 04:33N 50°17' W 000°08'1010.4
2016-May-29 03:33N 50°27' W 000°02'9 9.3
2016-May-29 02:33N 50°30' E 000°12'9 9.0
2016-May-29 01:32N 50°33' E 000°25'20 9.5
2016-May-28 23:26N 50°43' E 000°53'1011.2
2016-May-28 22:33N 50°49' E 001°05'1211.8
2016-May-28 21:33N 50°56' E 001°20'1111.5
2016-May-28 20:33N 51°04' E 001°33'9 9.0
2016-May-28 19:33N 51°02' E 001°47'1010.0
2016-May-28 18:33N 51°03' E 002°03'10 9.6
2016-May-28 17:33N 51°04' E 002°18'2 2.3
2016-May-28 16:33N 51°03' E 002°21'3 2.6
2016-May-28 15:33N 51°03' E 002°17'0 0.0
2016-May-28 14:33N 51°03' E 002°17'0 0.0
2016-May-28 13:34N 51°03' E 002°17'0 0.0
2016-May-28 12:33N 51°03' E 002°17'0 0.0
2016-May-28 11:33N 51°03' E 002°17'0 0.0
2016-May-28 10:33N 51°03' E 002°17'0 0.0
2016-May-28 09:33N 51°03' E 002°17'0 0.0
2016-May-28 08:33N 51°03' E 002°17'0 0.0
2016-May-28 07:33N 51°03' E 002°17'0 0.0
2016-May-28 06:33N 51°03' E 002°17'0 0.0
2016-May-28 05:33N 51°03' E 002°17'0 0.1
2016-May-28 04:33N 51°03' E 002°17'0 0.0
2016-May-28 03:33N 51°03' E 002°17'0 0.0
2016-May-28 02:33N 51°03' E 002°17'0 0.0
2016-May-28 01:33N 51°03' E 002°17'0 0.0
2016-May-28 00:33N 51°03' E 002°17'0 0.0
2016-May-27 23:33N 51°03' E 002°17'0 0.0
2016-May-27 22:33N 51°03' E 002°17'0 0.0
2016-May-27 21:33N 51°03' E 002°17'0 0.0
2016-May-27 20:33N 51°03' E 002°17'0 0.0
2016-May-27 19:33N 51°03' E 002°17'0 0.0
2016-May-27 18:33N 51°03' E 002°17'0 0.0
2016-May-27 17:33N 51°03' E 002°17'0 0.0
2016-May-27 16:33N 51°03' E 002°17'0 0.0
2016-May-27 15:33N 51°03' E 002°17'0 0.0
2016-May-27 14:33N 51°03' E 002°17'0 0.0
2016-May-27 13:33N 51°03' E 002°17'0 0.0
2016-May-27 12:33N 51°03' E 002°17'0 0.0
2016-May-27 11:30N 51°03' E 002°17'0 0.0
2016-May-27 10:30N 51°03' E 002°17'0 0.0
2016-May-27 08:33N 51°03' E 002°17'0 0.0
2016-May-27 07:30N 51°03' E 002°17'0 0.0
2016-May-27 06:03N 51°03' E 002°17'0 0.0
2016-May-27 04:30N 51°03' E 002°17'0 0.0
2016-May-27 02:24N 51°03' E 002°17'0 0.0
2016-May-27 01:33N 51°03' E 002°17'0 0.0
2016-May-27 00:33N 51°03' E 002°17'0 0.0
2016-May-26 23:33N 51°03' E 002°17'0 0.0
2016-May-26 22:33N 51°03' E 002°17'0 0.0
2016-May-26 21:33N 51°03' E 002°17'0 0.0
2016-May-26 20:33N 51°03' E 002°17'0 0.0
2016-May-26 19:33N 51°03' E 002°17'0 0.0
2016-May-26 18:33N 51°03' E 002°17'0 0.0
2016-May-26 17:33N 51°03' E 002°17'0 0.0
2016-May-26 16:33N 51°03' E 002°17'0 0.0
2016-May-26 15:33N 51°03' E 002°17'0 0.0
2016-May-26 14:33N 51°03' E 002°17'0 0.0
2016-May-26 13:33N 51°03' E 002°17'0 0.0
2016-May-26 12:33N 51°03' E 002°17'0 0.0
2016-May-26 11:33N 51°03' E 002°17'0 0.0
2016-May-26 10:33N 51°03' E 002°17'0 0.0
2016-May-26 09:33N 51°03' E 002°17'0 0.0
2016-May-26 08:30N 51°03' E 002°17'0 0.0
2016-May-26 07:33N 51°03' E 002°17'0 0.0
2016-May-26 06:30N 51°03' E 002°17'0 0.0
2016-May-26 05:27N 51°03' E 002°17'0 0.0
2016-May-26 04:27N 51°03' E 002°17'0 0.0
2016-May-26 03:24N 51°03' E 002°17'0 0.0
2016-May-26 02:15N 51°03' E 002°17'0 0.0
2016-May-26 01:30N 51°03' E 002°17'0 0.0
2016-May-26 00:33N 51°03' E 002°17'0 0.0
2016-May-25 23:33N 51°03' E 002°17'0 0.0
2016-May-25 22:09N 51°03' E 002°17'0 0.0
2016-May-25 21:33N 51°03' E 002°17'0 0.0
2016-May-25 20:30N 51°03' E 002°17'0 0.0
2016-May-25 19:33N 51°03' E 002°17'0 0.0
2016-May-25 18:21N 51°03' E 002°17'0 0.0
2016-May-25 11:33N 51°03' E 002°17'0 0.0
2016-May-25 10:27N 51°03' E 002°17'0 0.0
2016-May-25 09:27N 51°03' E 002°17'3 1.9
2016-May-25 08:03N 51°03' E 002°21'4 8.2
2016-May-25 07:33N 51°04' E 002°15'10 9.9
2016-May-25 06:33N 51°02' E 001°59'9 9.2
2016-May-25 05:33N 51°01' E 001°45'8 7.5
2016-May-25 04:33N 50°57' E 001°35'34 8.2
2016-May-25 00:29N 50°30' E 001°03'26 8.5
2016-May-24 21:28N 50°21' E 000°26'8 9.2
2016-May-24 20:33N 50°19' E 000°13'8 8.4
2016-May-24 19:33N 50°15' E 000°01'8 8.5
2016-May-24 18:34N 50°08' W 000°05'8 7.8
2016-May-24 17:34N 50°01' W 000°10'7 7.3
2016-May-24 16:34N 49°54' W 000°15'8 7.7
2016-May-24 15:33N 49°47' W 000°21'8 8.1
2016-May-24 14:34N 49°39' W 000°21'9 8.8
2016-May-24 13:33N 49°31' W 000°18'9 8.5
2016-May-24 12:34N 49°22' W 000°15'6 6.3
2016-May-24 11:34N 49°16' W 000°15'3 2.8
2016-May-24 10:31N 49°14' W 000°18'0 0.0
2016-May-24 09:31N 49°14' W 000°18'0 0.0
2016-May-24 08:31N 49°14' W 000°18'0 0.0
2016-May-24 07:31N 49°14' W 000°18'0 0.0
2016-May-24 06:31N 49°14' W 000°18'0 0.0
2016-May-24 05:31N 49°14' W 000°18'0 0.0
2016-May-24 04:31N 49°14' W 000°18'0 0.0
2016-May-24 03:31N 49°14' W 000°18'0 0.0
2016-May-24 02:31N 49°14' W 000°18'0 0.0
2016-May-24 01:31N 49°14' W 000°18'0 0.0
2016-May-24 00:31N 49°14' W 000°18'0 0.0
2016-May-23 23:31N 49°14' W 000°18'0 0.0
2016-May-23 22:31N 49°14' W 000°18'0 0.0
2016-May-23 21:31N 49°14' W 000°18'0 0.0
2016-May-23 20:31N 49°14' W 000°18'0 0.0
2016-May-23 19:31N 49°14' W 000°18'0 0.0
2016-May-23 18:31N 49°14' W 000°18'0 0.0
2016-May-23 17:31N 49°14' W 000°18'0 0.0
2016-May-23 16:31N 49°14' W 000°18'0 0.0
2016-May-23 15:31N 49°14' W 000°18'0 0.0
2016-May-23 14:31N 49°14' W 000°18'0 0.0
2016-May-23 13:28N 49°14' W 000°18'0 0.0
2016-May-23 12:31N 49°14' W 000°18'0 0.0
2016-May-23 11:31N 49°14' W 000°18'0 0.0
2016-May-23 10:31N 49°14' W 000°18'0 0.0
2016-May-23 09:31N 49°14' W 000°18'0 0.0
2016-May-23 08:31N 49°14' W 000°18'0 0.0
2016-May-23 07:31N 49°14' W 000°18'0 0.0
2016-May-23 06:31N 49°14' W 000°18'0 0.0
2016-May-23 05:31N 49°14' W 000°18'0 0.0
2016-May-23 04:31N 49°14' W 000°18'0 0.0
2016-May-23 03:31N 49°14' W 000°18'0 0.0
2016-May-23 02:31N 49°14' W 000°18'0 0.0
2016-May-23 01:31N 49°14' W 000°18'0 0.0
2016-May-23 00:31N 49°14' W 000°18'0 0.0
2016-May-22 23:31N 49°14' W 000°18'0 0.0
2016-May-22 22:31N 49°14' W 000°18'0 0.0
2016-May-22 21:31N 49°14' W 000°18'0 0.0
2016-May-22 20:31N 49°14' W 000°18'0 0.0
2016-May-22 19:31N 49°14' W 000°18'0 0.0
2016-May-22 18:31N 49°14' W 000°18'0 0.0
2016-May-22 17:31N 49°14' W 000°18'0 0.0
2016-May-22 16:31N 49°14' W 000°18'0 0.0
2016-May-22 15:31N 49°14' W 000°18'0 0.0
2016-May-22 14:31N 49°14' W 000°18'0 0.0
2016-May-22 13:31N 49°14' W 000°18'0 0.0
2016-May-22 12:31N 49°14' W 000°18'0 0.0
2016-May-22 11:31N 49°14' W 000°18'0 0.0
2016-May-22 10:31N 49°14' W 000°18'0 0.0
2016-May-22 09:31N 49°14' W 000°18'0 0.0
2016-May-22 08:34N 49°14' W 000°18'4 3.5
2016-May-22 07:34N 49°17' W 000°15'5 5.1
2016-May-22 06:33N 49°22' W 000°15'7 7.4
2016-May-22 05:33N 49°29' W 000°17'8 7.7
2016-May-22 04:33N 49°37' W 000°21'8 8.1
2016-May-22 03:33N 49°45' W 000°23'9 8.8
2016-May-22 02:34N 49°53' W 000°19'9 9.1
2016-May-22 01:33N 50°02' W 000°15'9 9.2
2016-May-22 00:33N 50°10' W 000°11'10 9.5
2016-May-21 23:33N 50°19' W 000°06'9 8.7
2016-May-21 22:33N 50°27' W 000°00'9 8.7
2016-May-21 21:33N 50°30' E 000°13'8 8.0
2016-May-21 20:34N 50°32' E 000°25'5010.0
2016-May-21 15:33N 51°02' E 001°29'8 7.8
2016-May-21 14:33N 51°01' E 001°41'9 9.0
2016-May-21 13:33N 51°02' E 001°56'9 8.7
2016-May-21 12:33N 51°02' E 002°10'2 0.7
2016-May-21 09:18N 51°00' E 002°11'0 0.0
2016-May-21 07:11N 51°00' E 002°11'0 0.0
2016-May-21 05:33N 51°00' E 002°11'0 0.0
2016-May-21 00:31N 51°00' E 002°11'0 0.0
2016-May-20 23:22N 51°00' E 002°11'0 0.0
2016-May-20 22:30N 51°00' E 002°11'0 0.0
2016-May-20 21:33N 51°00' E 002°11'0 0.0
2016-May-20 20:33N 51°00' E 002°11'0 0.0
2016-May-20 19:33N 51°00' E 002°11'0 0.0
2016-May-20 18:33N 51°00' E 002°11'0 0.0
2016-May-20 17:32N 51°00' E 002°11'0 0.0
2016-May-20 16:33N 51°00' E 002°11'0 0.0
2016-May-20 15:24N 51°00' E 002°11'0 0.2
2016-May-20 14:33N 51°00' E 002°11'9 9.4
2016-May-20 13:33N 51°02' E 001°56'3 2.6
2016-May-20 12:34N 51°04' E 001°53'7 7.0
2016-May-20 11:34N 51°01' E 001°42'1110.7
2016-May-20 10:33N 50°54' E 001°30'5210.3
2016-May-20 05:33N 50°22' E 000°26'1212.0
2016-May-20 04:33N 50°18' E 000°08'1110.9
2016-May-20 03:33N 50°10' W 000°03'1111.1
2016-May-20 02:33N 49°60' W 000°11'1111.2
2016-May-20 01:33N 49°50' W 000°19'1111.1
2016-May-20 00:34N 49°39' W 000°20'1111.4
2016-May-19 23:33N 49°30' W 000°09'1111.4
2016-May-19 22:34N 49°26' E 000°08'1111.3
2016-May-19 21:33N 49°27' E 000°25'8 7.8
2016-May-19 20:34N 49°26' E 000°37'8 6.8
2016-May-19 19:25N 49°30' E 000°46'  
Track history (hours):
 
Tides and Currents Weather Stations Pressure Air Temp Water Temp Dewpoint Dewpoint Depression Visibility Wind Speed Wind Dir Waves Ship Positions

Cfl Performer

Last reported at 2016-May-29 16:33 UTC. Time now 2016-May-29 17:17 UTC.
Position N 49°28' W 000°06'.

Length 117 m; draft 6.2 m.

Type: Cargo ship. MMSI: 244989000.

Date/timePositionNaut miles runAvg speedWind from/ knotsBaromVisibWave heightAir tempDewpointWater temp
2016-May-29 16:33N 49°28' W 000°06'0 0.1
2016-May-29 15:33N 49°28' W 000°06'0 0.0
2016-May-29 14:33N 49°28' W 000°06'0 0.0
2016-May-29 13:33N 49°28' W 000°06'0 0.2
2016-May-29 12:33N 49°28' W 000°06'0 0.0
2016-May-29 11:33N 49°28' W 000°06'0 0.0
2016-May-29 10:33N 49°28' W 000°06'5 5.5
2016-May-29 09:33N 49°34' W 000°07'7 7.0
2016-May-29 08:33N 49°38' W 000°15'9 9.1
2016-May-29 07:33N 49°45' W 000°24'1211.6
2016-May-29 06:33N 49°56' W 000°18'1111.2
2016-May-29 05:33N 50°07' W 000°13'1110.6
2016-May-29 04:33N 50°17' W 000°08'1010.4
2016-May-29 03:33N 50°27' W 000°02'9 9.3
2016-May-29 02:33N 50°30' E 000°12'9 9.0
2016-May-29 01:32N 50°33' E 000°25'20 9.5
2016-May-28 23:26N 50°43' E 000°53'1011.2
2016-May-28 22:33N 50°49' E 001°05'1211.8
2016-May-28 21:33N 50°56' E 001°20'1111.5
2016-May-28 20:33N 51°04' E 001°33'9 9.0
2016-May-28 19:33N 51°02' E 001°47'1010.0
2016-May-28 18:33N 51°03' E 002°03'10 9.6
2016-May-28 17:33N 51°04' E 002°18'2 2.3
2016-May-28 16:33N 51°03' E 002°21'3 2.6
2016-May-28 15:33N 51°03' E 002°17'0 0.0
2016-May-28 14:33N 51°03' E 002°17'0 0.0
2016-May-28 13:34N 51°03' E 002°17'0 0.0
2016-May-28 12:33N 51°03' E 002°17'0 0.0
2016-May-28 11:33N 51°03' E 002°17'0 0.0
2016-May-28 10:33N 51°03' E 002°17'0 0.0
2016-May-28 09:33N 51°03' E 002°17'0 0.0
2016-May-28 08:33N 51°03' E 002°17'0 0.0
2016-May-28 07:33N 51°03' E 002°17'0 0.0
2016-May-28 06:33N 51°03' E 002°17'0 0.0
2016-May-28 05:33N 51°03' E 002°17'0 0.1
2016-May-28 04:33N 51°03' E 002°17'0 0.0
2016-May-28 03:33N 51°03' E 002°17'0 0.0
2016-May-28 02:33N 51°03' E 002°17'0 0.0
2016-May-28 01:33N 51°03' E 002°17'0 0.0
2016-May-28 00:33N 51°03' E 002°17'0 0.0
2016-May-27 23:33N 51°03' E 002°17'0 0.0
2016-May-27 22:33N 51°03' E 002°17'0 0.0
2016-May-27 21:33N 51°03' E 002°17'0 0.0
2016-May-27 20:33N 51°03' E 002°17'0 0.0
2016-May-27 19:33N 51°03' E 002°17'0 0.0
2016-May-27 18:33N 51°03' E 002°17'0 0.0
2016-May-27 17:33N 51°03' E 002°17'0 0.0
2016-May-27 16:33N 51°03' E 002°17'0 0.0
2016-May-27 15:33N 51°03' E 002°17'0 0.0
2016-May-27 14:33N 51°03' E 002°17'0 0.0
2016-May-27 13:33N 51°03' E 002°17'0 0.0
2016-May-27 12:33N 51°03' E 002°17'0 0.0
2016-May-27 11:30N 51°03' E 002°17'0 0.0
2016-May-27 10:30N 51°03' E 002°17'0 0.0
2016-May-27 08:33N 51°03' E 002°17'0 0.0
2016-May-27 07:30N 51°03' E 002°17'0 0.0
2016-May-27 06:03N 51°03' E 002°17'0 0.0
2016-May-27 04:30N 51°03' E 002°17'0 0.0
2016-May-27 02:24N 51°03' E 002°17'0 0.0
2016-May-27 01:33N 51°03' E 002°17'0 0.0
2016-May-27 00:33N 51°03' E 002°17'0 0.0
2016-May-26 23:33N 51°03' E 002°17'0 0.0
2016-May-26 22:33N 51°03' E 002°17'0 0.0
2016-May-26 21:33N 51°03' E 002°17'0 0.0
2016-May-26 20:33N 51°03' E 002°17'0 0.0
2016-May-26 19:33N 51°03' E 002°17'0 0.0
2016-May-26 18:33N 51°03' E 002°17'0 0.0
2016-May-26 17:33N 51°03' E 002°17'0 0.0
2016-May-26 16:33N 51°03' E 002°17'0 0.0
2016-May-26 15:33N 51°03' E 002°17'0 0.0
2016-May-26 14:33N 51°03' E 002°17'0 0.0
2016-May-26 13:33N 51°03' E 002°17'0 0.0
2016-May-26 12:33N 51°03' E 002°17'0 0.0
2016-May-26 11:33N 51°03' E 002°17'0 0.0
2016-May-26 10:33N 51°03' E 002°17'0 0.0
2016-May-26 09:33N 51°03' E 002°17'0 0.0
2016-May-26 08:30N 51°03' E 002°17'0 0.0
2016-May-26 07:33N 51°03' E 002°17'0 0.0
2016-May-26 06:30N 51°03' E 002°17'0 0.0
2016-May-26 05:27N 51°03' E 002°17'0 0.0
2016-May-26 04:27N 51°03' E 002°17'0 0.0
2016-May-26 03:24N 51°03' E 002°17'0 0.0
2016-May-26 02:15N 51°03' E 002°17'0 0.0
2016-May-26 01:30N 51°03' E 002°17'0 0.0
2016-May-26 00:33N 51°03' E 002°17'0 0.0
2016-May-25 23:33N 51°03' E 002°17'0 0.0
2016-May-25 22:09N 51°03' E 002°17'0 0.0
2016-May-25 21:33N 51°03' E 002°17'0 0.0
2016-May-25 20:30N 51°03' E 002°17'0 0.0
2016-May-25 19:33N 51°03' E 002°17'0 0.0
2016-May-25 18:21N 51°03' E 002°17'0 0.0
2016-May-25 11:33N 51°03' E 002°17'0 0.0
2016-May-25 10:27N 51°03' E 002°17'0 0.0
2016-May-25 09:27N 51°03' E 002°17'3 1.9
2016-May-25 08:03N 51°03' E 002°21'4 8.2
2016-May-25 07:33N 51°04' E 002°15'10 9.9
2016-May-25 06:33N 51°02' E 001°59'9 9.2
2016-May-25 05:33N 51°01' E 001°45'8 7.5
2016-May-25 04:33N 50°57' E 001°35'34 8.2
2016-May-25 00:29N 50°30' E 001°03'26 8.5
2016-May-24 21:28N 50°21' E 000°26'8 9.2
2016-May-24 20:33N 50°19' E 000°13'8 8.4
2016-May-24 19:33N 50°15' E 000°01'8 8.5
2016-May-24 18:34N 50°08' W 000°05'8 7.8
2016-May-24 17:34N 50°01' W 000°10'7 7.3
2016-May-24 16:34N 49°54' W 000°15'8 7.7
2016-May-24 15:33N 49°47' W 000°21'8 8.1
2016-May-24 14:34N 49°39' W 000°21'9 8.8
2016-May-24 13:33N 49°31' W 000°18'9 8.5
2016-May-24 12:34N 49°22' W 000°15'6 6.3
2016-May-24 11:34N 49°16' W 000°15'3 2.8
2016-May-24 10:31N 49°14' W 000°18'0 0.0
2016-May-24 09:31N 49°14' W 000°18'0 0.0
2016-May-24 08:31N 49°14' W 000°18'0 0.0
2016-May-24 07:31N 49°14' W 000°18'0 0.0
2016-May-24 06:31N 49°14' W 000°18'0 0.0
2016-May-24 05:31N 49°14' W 000°18'0 0.0
2016-May-24 04:31N 49°14' W 000°18'0 0.0
2016-May-24 03:31N 49°14' W 000°18'0 0.0
2016-May-24 02:31N 49°14' W 000°18'0 0.0
2016-May-24 01:31N 49°14' W 000°18'0 0.0
2016-May-24 00:31N 49°14' W 000°18'0 0.0
2016-May-23 23:31N 49°14' W 000°18'0 0.0
2016-May-23 22:31N 49°14' W 000°18'0 0.0
2016-May-23 21:31N 49°14' W 000°18'0 0.0
2016-May-23 20:31N 49°14' W 000°18'0 0.0
2016-May-23 19:31N 49°14' W 000°18'0 0.0
2016-May-23 18:31N 49°14' W 000°18'0 0.0
2016-May-23 17:31N 49°14' W 000°18'0 0.0
2016-May-23 16:31N 49°14' W 000°18'0 0.0
2016-May-23 15:31N 49°14' W 000°18'0 0.0
2016-May-23 14:31N 49°14' W 000°18'0 0.0
2016-May-23 13:28N 49°14' W 000°18'0 0.0
2016-May-23 12:31N 49°14' W 000°18'0 0.0
2016-May-23 11:31N 49°14' W 000°18'0 0.0
2016-May-23 10:31N 49°14' W 000°18'0 0.0
2016-May-23 09:31N 49°14' W 000°18'0 0.0
2016-May-23 08:31N 49°14' W 000°18'0 0.0
2016-May-23 07:31N 49°14' W 000°18'0 0.0
2016-May-23 06:31N 49°14' W 000°18'0 0.0
2016-May-23 05:31N 49°14' W 000°18'0 0.0
2016-May-23 04:31N 49°14' W 000°18'0 0.0
2016-May-23 03:31N 49°14' W 000°18'0 0.0
2016-May-23 02:31N 49°14' W 000°18'0 0.0
2016-May-23 01:31N 49°14' W 000°18'0 0.0
2016-May-23 00:31N 49°14' W 000°18'0 0.0
2016-May-22 23:31N 49°14' W 000°18'0 0.0
2016-May-22 22:31N 49°14' W 000°18'0 0.0
2016-May-22 21:31N 49°14' W 000°18'0 0.0
2016-May-22 20:31N 49°14' W 000°18'0 0.0
2016-May-22 19:31N 49°14' W 000°18'0 0.0
2016-May-22 18:31N 49°14' W 000°18'0 0.0
2016-May-22 17:31N 49°14' W 000°18'0 0.0
2016-May-22 16:31N 49°14' W 000°18'0 0.0
2016-May-22 15:31N 49°14' W 000°18'0 0.0
2016-May-22 14:31N 49°14' W 000°18'0 0.0
2016-May-22 13:31N 49°14' W 000°18'0 0.0
2016-May-22 12:31N 49°14' W 000°18'0 0.0
2016-May-22 11:31N 49°14' W 000°18'0 0.0
2016-May-22 10:31N 49°14' W 000°18'0 0.0
2016-May-22 09:31N 49°14' W 000°18'0 0.0
2016-May-22 08:34N 49°14' W 000°18'4 3.5
2016-May-22 07:34N 49°17' W 000°15'5 5.1
2016-May-22 06:33N 49°22' W 000°15'7 7.4
2016-May-22 05:33N 49°29' W 000°17'8 7.7
2016-May-22 04:33N 49°37' W 000°21'8 8.1
2016-May-22 03:33N 49°45' W 000°23'9 8.8
2016-May-22 02:34N 49°53' W 000°19'9 9.1
2016-May-22 01:33N 50°02' W 000°15'9 9.2
2016-May-22 00:33N 50°10' W 000°11'10 9.5
2016-May-21 23:33N 50°19' W 000°06'9 8.7
2016-May-21 22:33N 50°27' W 000°00'9 8.7
2016-May-21 21:33N 50°30' E 000°13'8 8.0
2016-May-21 20:34N 50°32' E 000°25'5010.0
2016-May-21 15:33N 51°02' E 001°29'8 7.8
2016-May-21 14:33N 51°01' E 001°41'9 9.0
2016-May-21 13:33N 51°02' E 001°56'9 8.7
2016-May-21 12:33N 51°02' E 002°10'2 0.7
2016-May-21 09:18N 51°00' E 002°11'0 0.0
2016-May-21 07:11N 51°00' E 002°11'0 0.0
2016-May-21 05:33N 51°00' E 002°11'0 0.0
2016-May-21 00:31N 51°00' E 002°11'0 0.0
2016-May-20 23:22N 51°00' E 002°11'0 0.0
2016-May-20 22:30N 51°00' E 002°11'0 0.0
2016-May-20 21:33N 51°00' E 002°11'0 0.0
2016-May-20 20:33N 51°00' E 002°11'0 0.0
2016-May-20 19:33N 51°00' E 002°11'0 0.0
2016-May-20 18:33N 51°00' E 002°11'0 0.0
2016-May-20 17:32N 51°00' E 002°11'0 0.0
2016-May-20 16:33N 51°00' E 002°11'0 0.0
2016-May-20 15:24N 51°00' E 002°11'0 0.2
2016-May-20 14:33N 51°00' E 002°11'9 9.4
2016-May-20 13:33N 51°02' E 001°56'3 2.6
2016-May-20 12:34N 51°04' E 001°53'7 7.0
2016-May-20 11:34N 51°01' E 001°42'1110.7
2016-May-20 10:33N 50°54' E 001°30'5210.3
2016-May-20 05:33N 50°22' E 000°26'1212.0
2016-May-20 04:33N 50°18' E 000°08'1110.9
2016-May-20 03:33N 50°10' W 000°03'1111.1
2016-May-20 02:33N 49°60' W 000°11'1111.2
2016-May-20 01:33N 49°50' W 000°19'1111.1
2016-May-20 00:34N 49°39' W 000°20'1111.4
2016-May-19 23:33N 49°30' W 000°09'1111.4
2016-May-19 22:34N 49°26' E 000°08'1111.3
2016-May-19 21:33N 49°27' E 000°25'8 7.8
2016-May-19 20:34N 49°26' E 000°37'8 6.8
2016-May-19 19:25N 49°30' E 000°46'  

Dump ship's entire track history